createdAt,value
2023-09-17T00:01:24.982Z,190
2023-09-17T00:05:27.933Z,190
2023-09-17T00:09:31.094Z,190
2023-09-17T00:11:32.907Z,190
2023-09-17T00:15:35.120Z,190
2023-09-17T00:21:38.337Z,190
2023-09-17T00:27:43.035Z,190
2023-09-17T00:31:46.428Z,190
2023-09-17T00:37:51.029Z,190
2023-09-17T00:41:54.036Z,190
2023-09-17T00:43:55.355Z,190
2023-09-17T00:47:58.068Z,190
2023-09-17T00:52:00.051Z,190
2023-09-17T00:54:01.677Z,190
2023-09-17T00:58:04.807Z,190
2023-09-17T01:04:09.279Z,190
2023-09-17T01:08:11.368Z,190
2023-09-17T01:10:12.645Z,190
2023-09-17T01:14:15.120Z,190
2023-09-17T01:20:19.302Z,190
2023-09-17T01:24:22.367Z,190
2023-09-17T01:26:23.524Z,190
2023-09-17T01:30:25.703Z,190
2023-09-17T01:34:30.257Z,190
2023-09-17T01:36:28.828Z,190
2023-09-17T01:40:31.673Z,190
2023-09-17T01:44:35.161Z,190
2023-09-17T01:46:36.744Z,190
2023-09-17T01:50:40.343Z,190
2023-09-17T01:52:41.688Z,190
2023-09-17T01:56:44.199Z,190
2023-09-17T02:02:47.844Z,190
2023-09-17T02:08:52.062Z,190
2023-09-17T02:12:54.744Z,190
2023-09-17T02:18:59.273Z,190
2023-09-17T02:23:02.351Z,190
2023-09-17T02:27:05.162Z,190
2023-09-17T02:29:06.245Z,190
2023-09-17T02:33:09.341Z,190
2023-09-17T02:35:10.873Z,190
2023-09-17T02:39:14.112Z,190
2023-09-17T02:45:18.997Z,190
2023-09-17T02:47:20.557Z,190
2023-09-17T02:51:23.709Z,190
2023-09-17T02:55:25.832Z,190
2023-09-17T03:01:29.887Z,190
2023-09-17T03:05:32.477Z,190
2023-09-17T03:07:34.334Z,190
2023-09-17T03:11:37.341Z,190
2023-09-17T03:12:21.081Z,190
2023-09-17T03:16:23.630Z,190
2023-09-17T03:22:27.905Z,190
2023-09-17T03:26:30.410Z,190
2023-09-17T03:28:31.573Z,190
2023-09-17T03:32:34.546Z,190
2023-09-17T03:38:38.418Z,190
2023-09-17T03:42:40.976Z,190
2023-09-17T03:44:41.961Z,190
2023-09-17T03:48:44.565Z,190
2023-09-17T03:52:46.985Z,190
2023-09-17T03:54:47.870Z,190
2023-09-17T03:58:51.123Z,190
2023-09-17T04:02:54.185Z,190
2023-09-17T04:04:55.131Z,190
2023-09-17T04:08:57.344Z,190
2023-09-17T04:10:58.659Z,190
2023-09-17T04:12:59.991Z,190
2023-09-17T04:15:01.574Z,190
2023-09-17T04:17:03.208Z,190
2023-09-17T04:21:05.447Z,190
2023-09-17T04:25:08.131Z,190
2023-09-17T04:27:09.217Z,190
2023-09-17T04:31:11.650Z,190
2023-09-17T04:35:13.806Z,190
2023-09-17T04:37:14.948Z,190
2023-09-17T04:41:18.042Z,190
2023-09-17T04:43:19.645Z,190
2023-09-17T04:45:20.717Z,190
2023-09-17T04:47:22.369Z,190
2023-09-17T04:53:26.527Z,190
2023-09-17T04:55:27.455Z,190
2023-09-17T04:59:30.270Z,190
2023-09-17T05:03:32.637Z,190
2023-09-17T05:09:37.483Z,190
2023-09-17T05:13:40.214Z,188
2023-09-17T05:15:41.257Z,188
2023-09-17T05:19:44.373Z,188
2023-09-17T05:23:46.352Z,188
2023-09-17T05:25:47.686Z,187
2023-09-17T05:29:50.628Z,188
2023-09-17T05:35:54.133Z,187
2023-09-17T05:39:56.589Z,187
2023-09-17T05:41:57.534Z,187
2023-09-17T05:46:00.125Z,187
2023-09-17T05:52:03.353Z,187
2023-09-17T05:56:06.807Z,187
2023-09-17T05:58:07.873Z,187
2023-09-17T06:02:10.913Z,187
2023-09-17T06:06:13.897Z,187
2023-09-17T06:08:14.828Z,187
2023-09-17T06:12:17.538Z,187
2023-09-17T06:16:20.650Z,187
2023-09-17T06:18:22.195Z,187
2023-09-17T06:22:24.408Z,187
2023-09-17T06:24:25.256Z,187
2023-09-17T06:26:26.163Z,187
2023-09-17T06:28:27.603Z,187
2023-09-17T06:34:31.024Z,187
2023-09-17T06:36:32.407Z,186
2023-09-17T06:40:34.870Z,186
2023-09-17T06:44:37.923Z,186
2023-09-17T06:50:41.537Z,186
2023-09-17T06:54:44.952Z,186
2023-09-17T06:56:46.604Z,186
2023-09-17T07:00:49.143Z,186
2023-09-17T07:04:51.638Z,186
2023-09-17T07:06:52.579Z,186
2023-09-17T07:10:54.639Z,186
2023-09-17T07:16:58.707Z,186
2023-09-17T07:21:01.445Z,186
2023-09-17T07:23:02.469Z,186
2023-09-17T07:27:05.258Z,186
2023-09-17T07:33:08.411Z,360
2023-09-17T07:37:10.420Z,360
2023-09-17T07:39:11.389Z,360
2023-09-17T07:43:15.254Z,360
2023-09-17T07:47:17.742Z,360
2023-09-17T07:49:19.213Z,360
2023-09-17T07:53:22.385Z,360
2023-09-17T07:57:24.454Z,360
2023-09-17T07:59:26.029Z,360
2023-09-17T08:03:28.008Z,360
2023-09-17T08:05:29.453Z,360
2023-09-17T08:09:31.794Z,360
2023-09-17T08:15:34.969Z,360
2023-09-17T08:21:38.487Z,360
2023-09-17T08:25:40.767Z,360
2023-09-17T08:31:44.368Z,182
2023-09-17T08:35:46.310Z,150
2023-09-17T08:37:47.901Z,150
2023-09-17T08:41:50.253Z,150
2023-09-17T08:45:52.455Z,150
2023-09-17T08:47:53.749Z,150
2023-09-17T08:51:56.238Z,150
2023-09-17T08:58:00.105Z,360
2023-09-17T09:02:02.958Z,360
2023-09-17T09:04:04.528Z,360
2023-09-17T09:08:06.565Z,150
2023-09-17T09:14:11.006Z,150
2023-09-17T09:18:12.978Z,150
2023-09-17T09:20:14.289Z,150
2023-09-17T09:24:16.876Z,150
2023-09-17T09:28:19.304Z,150
2023-09-17T09:30:20.150Z,150
2023-09-17T09:34:23.147Z,150
2023-09-17T09:38:25.632Z,150
2023-09-17T09:40:27.782Z,360
2023-09-17T09:44:30.865Z,360
2023-09-17T09:46:31.718Z,360
2023-09-17T09:48:33.236Z,360
2023-09-17T09:50:34.500Z,360
2023-09-17T09:56:37.650Z,360
2023-09-17T09:57:21.292Z,360
2023-09-17T10:01:24.145Z,182
2023-09-17T10:07:27.479Z,360
2023-09-17T10:11:30.344Z,360
2023-09-17T10:13:31.467Z,360
2023-09-17T10:17:34.584Z,360
2023-09-17T10:21:36.044Z,360
2023-09-17T10:23:37.544Z,360
2023-09-17T10:27:39.511Z,360
2023-09-17T10:33:43.116Z,360
2023-09-17T10:37:45.543Z,131
2023-09-17T10:39:47.164Z,132
2023-09-17T10:43:50.331Z,360
2023-09-17T10:49:54.481Z,165
2023-09-17T10:53:57.520Z,360
2023-09-17T10:55:58.290Z,360
2023-09-17T11:00:00.695Z,360
2023-09-17T11:04:03.495Z,360
2023-09-17T11:06:06.998Z,360
2023-09-17T11:10:14.516Z,360
2023-09-17T11:16:11.322Z,360
2023-09-17T11:20:13.790Z,360
2023-09-17T11:22:15.181Z,360
2023-09-17T11:26:17.881Z,360
2023-09-17T11:32:21.633Z,360
2023-09-17T11:38:24.769Z,360
2023-09-17T11:42:27.208Z,130
2023-09-17T11:48:32.722Z,360
2023-09-17T11:52:33.675Z,134
2023-09-17T11:54:34.584Z,360
2023-09-17T11:58:36.949Z,360
2023-09-17T12:02:39.630Z,360
2023-09-17T12:04:42.483Z,360
2023-09-17T12:08:43.491Z,360
2023-09-17T12:14:46.995Z,360
2023-09-17T12:18:52.720Z,166
2023-09-17T12:20:51.381Z,360
2023-09-17T12:24:54.637Z,360
2023-09-17T12:30:57.822Z,360
2023-09-17T12:37:01.498Z,165
2023-09-17T12:41:04.640Z,196
2023-09-17T12:47:07.897Z,360
2023-09-17T12:51:09.945Z,223
2023-09-17T12:53:11.496Z,360
2023-09-17T12:57:13.667Z,181
2023-09-17T13:01:15.509Z,360
2023-09-17T13:03:16.896Z,360
2023-09-17T13:07:19.320Z,150
2023-09-17T13:13:23.022Z,360
2023-09-17T13:17:26.154Z,360
2023-09-17T13:19:27.396Z,198
2023-09-17T13:23:29.529Z,360
2023-09-17T13:29:33.398Z,169
2023-09-17T13:33:36.245Z,180
2023-09-17T13:35:37.774Z,181
2023-09-17T13:39:40.408Z,147
2023-09-17T13:43:42.764Z,360
2023-09-17T13:45:43.581Z,360
2023-09-17T13:49:46.301Z,120
2023-09-17T13:53:47.849Z,360
2023-09-17T13:55:48.789Z,360
2023-09-17T13:59:51.488Z,360
2023-09-17T14:01:53.271Z,360
2023-09-17T14:03:54.058Z,360
2023-09-17T14:05:55.729Z,360
2023-09-17T14:11:59.763Z,145
2023-09-17T14:14:01.264Z,117
2023-09-17T14:18:03.301Z,360
2023-09-17T14:22:05.672Z,360
2023-09-17T14:28:10.491Z,360
2023-09-17T14:32:13.527Z,142
2023-09-17T14:34:15.184Z,143
2023-09-17T14:38:17.270Z,360
2023-09-17T14:42:20.261Z,360
2023-09-17T14:44:21.231Z,360
2023-09-17T14:48:23.457Z,360
2023-09-17T14:54:27.472Z,140
2023-09-17T14:58:29.336Z,165
2023-09-17T15:00:30.057Z,165
2023-09-17T15:04:32.210Z,168
2023-09-17T15:10:35.992Z,168
2023-09-17T15:14:39.616Z,360
2023-09-17T15:16:40.726Z,360
2023-09-17T15:20:43.033Z,105
2023-09-17T15:24:44.844Z,360
2023-09-17T15:26:45.841Z,117
2023-09-17T15:30:48.709Z,360
2023-09-17T15:34:51.138Z,360
2023-09-17T15:36:52.575Z,360
2023-09-17T15:40:54.689Z,360
2023-09-17T15:42:55.900Z,92
2023-09-17T15:46:58.635Z,106
2023-09-17T15:53:02.232Z,139
2023-09-17T15:59:06.345Z,140
2023-09-17T16:03:08.719Z,115
2023-09-17T16:09:12.349Z,360
2023-09-17T16:13:14.904Z,132
2023-09-17T16:15:16.037Z,132
2023-09-17T16:19:18.103Z,132
2023-09-17T16:23:20.425Z,150
2023-09-17T16:25:21.861Z,150
2023-09-17T16:29:24.952Z,150
2023-09-17T16:35:28.044Z,184
2023-09-17T16:39:30.440Z,184
2023-09-17T16:41:31.440Z,184
2023-09-17T16:42:15.072Z,360
2023-09-17T16:46:17.551Z,60
2023-09-17T16:52:21.065Z,60
2023-09-17T16:56:24.111Z,63
2023-09-17T17:02:28.054Z,63
2023-09-17T17:06:30.062Z,64
2023-09-17T17:08:31.433Z,64
2023-09-17T17:12:33.848Z,86
2023-09-17T17:16:36.286Z,139
2023-09-17T17:18:37.297Z,139
2023-09-17T17:22:39.522Z,139
2023-09-17T17:28:43.124Z,139
2023-09-17T17:32:46.575Z,73
2023-09-17T17:34:48.053Z,73
2023-09-17T17:38:50.465Z,92
2023-09-17T17:44:54.170Z,82
2023-09-17T17:48:57.392Z,100
2023-09-17T17:50:58.381Z,75
2023-09-17T17:55:00.383Z,83
2023-09-17T17:59:02.056Z,83
2023-09-17T18:01:03.718Z,110
2023-09-17T18:05:05.939Z,99
2023-09-17T18:11:10.004Z,97
2023-09-17T18:15:13.294Z,97
2023-09-17T18:17:14.957Z,97
2023-09-17T18:21:18.017Z,80
2023-09-17T18:27:21.352Z,80
2023-09-17T18:33:25.021Z,83
2023-09-17T18:37:28.145Z,35
2023-09-17T18:43:31.985Z,91
2023-09-17T18:47:34.181Z,97
2023-09-17T18:49:35.722Z,97
2023-09-17T18:53:37.694Z,81
2023-09-17T18:57:41.257Z,92
2023-09-17T18:59:42.916Z,92
2023-09-17T19:03:45.400Z,77
2023-09-17T19:09:48.904Z,48
2023-09-17T19:15:53.300Z,90
2023-09-17T19:19:55.455Z,90
2023-09-17T19:25:59.212Z,91
2023-09-17T19:30:01.084Z,91
2023-09-17T19:32:02.160Z,91
2023-09-17T19:36:04.397Z,92
2023-09-17T19:40:07.205Z,109
2023-09-17T19:42:08.145Z,108
2023-09-17T19:46:10.043Z,108
2023-09-17T19:52:14.921Z,108
2023-09-17T19:56:17.303Z,106
2023-09-17T19:58:18.845Z,106
2023-09-17T20:02:21.902Z,106
2023-09-17T20:08:24.970Z,106
2023-09-17T20:14:28.624Z,106
2023-09-17T20:18:30.872Z,96
2023-09-17T20:24:34.890Z,116
2023-09-17T20:28:37.534Z,117
2023-09-17T20:30:38.774Z,117
2023-09-17T20:34:40.798Z,88
2023-09-17T20:38:42.729Z,88
2023-09-17T20:40:44.396Z,75
2023-09-17T20:44:47.625Z,84
2023-09-17T20:50:52.479Z,86
2023-09-17T20:56:57.137Z,87
2023-09-17T21:01:07.545Z,80
2023-09-17T21:07:03.150Z,128
2023-09-17T21:11:05.610Z,128
2023-09-17T21:13:07.182Z,128
2023-09-17T21:17:09.631Z,128
2023-09-17T21:21:12.585Z,128
2023-09-17T21:23:14.023Z,128
2023-09-17T21:27:15.832Z,128
2023-09-17T21:31:17.593Z,127
2023-09-17T21:33:27.154Z,127
2023-09-17T21:37:21.539Z,127
2023-09-17T21:39:23.458Z,127
2023-09-17T21:43:27.064Z,127
2023-09-17T21:49:30.708Z,66
2023-09-17T21:55:34.186Z,88
2023-09-17T21:59:37.774Z,88
2023-09-17T22:03:39.621Z,88
2023-09-17T22:05:40.680Z,85
2023-09-17T22:09:43.898Z,94
2023-09-17T22:11:44.911Z,99
2023-09-17T22:15:46.939Z,98
2023-09-17T22:22:00.915Z,115
2023-09-17T22:27:56.104Z,115
2023-09-17T22:31:59.965Z,115
2023-09-17T22:36:03.455Z,113
2023-09-17T22:38:02.874Z,114
2023-09-17T22:42:05.454Z,119
2023-09-17T22:48:09.920Z,164
2023-09-17T22:52:13.036Z,96
2023-09-17T22:54:14.072Z,96
2023-09-17T22:56:15.559Z,96
2023-09-17T22:58:16.351Z,99
2023-09-17T23:04:20.546Z,80
2023-09-17T23:10:24.006Z,88
2023-09-17T23:14:26.936Z,92
2023-09-17T23:20:31.281Z,72
2023-09-17T23:24:33.560Z,152
2023-09-17T23:26:35.310Z,152
2023-09-17T23:27:18.759Z,152
2023-09-17T23:29:20.004Z,152
2023-09-17T23:31:28.839Z,152
2023-09-17T23:35:24.324Z,152
2023-09-17T23:39:26.421Z,152
2023-09-17T23:41:28.072Z,174
2023-09-17T23:45:31.795Z,138
2023-09-17T23:47:31.985Z,83
2023-09-17T23:51:34.861Z,115
2023-09-17T23:57:38.124Z,80
